createdAt,value
2022-11-12T00:00:32.314Z,11.40
2022-11-12T00:03:18.140Z,11.21
2022-11-12T00:06:04.178Z,10.97
2022-11-12T00:08:49.822Z,11.22
2022-11-12T00:11:35.542Z,11.45
2022-11-12T00:14:21.675Z,11.56
2022-11-12T00:17:07.651Z,11.63
2022-11-12T00:19:54.085Z,11.76
2022-11-12T00:22:39.839Z,11.56
2022-11-12T00:25:25.502Z,11.56
2022-11-12T00:28:11.290Z,11.47
2022-11-12T00:30:57.258Z,11.40
2022-11-12T00:33:43.457Z,11.49
2022-11-12T00:36:29.476Z,11.13
2022-11-12T00:39:15.267Z,11.17
2022-11-12T00:42:01.715Z,11.22
2022-11-12T00:44:47.447Z,11.24
2022-11-12T00:47:33.245Z,11.27
2022-11-12T00:50:19.009Z,11.38
2022-11-12T00:53:04.961Z,11.41
2022-11-12T00:55:50.615Z,11.45
2022-11-12T00:58:36.272Z,11.76
2022-11-12T01:01:22.056Z,11.73
2022-11-12T01:04:08.040Z,11.83
2022-11-12T01:06:53.915Z,12.07
2022-11-12T01:09:39.557Z,11.81
2022-11-12T01:12:25.323Z,11.85
2022-11-12T01:15:11.149Z,11.87
2022-11-12T01:17:56.782Z,12.01
2022-11-12T01:20:42.394Z,11.88
2022-11-12T01:23:28.314Z,11.95
2022-11-12T01:26:15.924Z,11.99
2022-11-12T01:29:02.394Z,11.95
2022-11-12T01:31:48.017Z,11.74
2022-11-12T01:34:33.877Z,11.61
2022-11-12T01:37:19.682Z,11.58
2022-11-12T01:40:06.039Z,11.78
2022-11-12T01:42:53.057Z,11.60
2022-11-12T01:45:45.470Z,11.66
2022-11-12T01:48:38.569Z,11.71
2022-11-12T01:51:27.968Z,11.79
2022-11-12T01:54:15.303Z,11.63
2022-11-12T01:57:02.022Z,11.48
2022-11-12T01:59:49.126Z,11.70
2022-11-12T02:02:36.797Z,11.74
2022-11-12T02:05:23.278Z,11.71
2022-11-12T02:08:11.111Z,11.94
2022-11-12T02:10:56.773Z,12.00
2022-11-12T02:13:58.081Z,11.85
2022-11-12T02:16:45.453Z,11.80
2022-11-12T02:19:31.432Z,11.95
2022-11-12T02:22:17.162Z,11.93
2022-11-12T02:25:02.947Z,11.91
2022-11-12T02:27:51.661Z,12.02
2022-11-12T02:30:44.080Z,11.83
2022-11-12T02:33:29.863Z,11.64
2022-11-12T02:36:15.632Z,11.53
2022-11-12T02:39:01.701Z,11.76
2022-11-12T02:41:47.611Z,11.78
2022-11-12T02:44:33.569Z,11.83
2022-11-12T02:47:19.213Z,11.79
2022-11-12T02:50:05.438Z,11.61
2022-11-12T02:52:51.414Z,11.67
2022-11-12T02:55:37.212Z,11.67
2022-11-12T02:58:23.331Z,11.68
2022-11-12T03:01:09.107Z,11.50
2022-11-12T03:03:55.245Z,11.56
2022-11-12T03:06:41.123Z,11.66
2022-11-12T03:09:27.168Z,11.60
2022-11-12T03:14:58.792Z,11.53
2022-11-12T03:17:44.418Z,11.49
2022-11-12T03:20:30.305Z,11.37
2022-11-12T03:23:16.201Z,11.45
2022-11-12T03:26:03.341Z,11.41
2022-11-12T03:28:51.343Z,11.31
2022-11-12T03:31:37.017Z,11.40
2022-11-12T03:34:22.889Z,11.31
2022-11-12T03:37:09.613Z,11.16
2022-11-12T03:39:55.433Z,10.86
2022-11-12T03:42:48.237Z,11.00
2022-11-12T03:45:34.339Z,11.01
2022-11-12T03:48:20.125Z,11.16
2022-11-12T03:51:05.837Z,11.27
2022-11-12T03:53:51.716Z,11.17
2022-11-12T03:56:37.442Z,11.15
2022-11-12T03:59:23.094Z,11.11
2022-11-12T04:02:14.327Z,11.00
2022-11-12T04:05:19.251Z,11.07
2022-11-12T04:08:34.942Z,11.20
2022-11-12T04:11:21.086Z,11.10
2022-11-12T04:14:07.030Z,11.11
2022-11-12T04:17:11.161Z,11.07
2022-11-12T04:20:15.630Z,11.04
2022-11-12T04:23:01.599Z,10.87
2022-11-12T04:26:05.593Z,10.91
2022-11-12T04:29:10.026Z,11.03
2022-11-12T04:31:55.935Z,10.95
2022-11-12T04:34:42.113Z,10.87
2022-11-12T04:37:29.765Z,10.87
2022-11-12T04:40:42.808Z,10.71
2022-11-12T04:43:47.252Z,10.66
2022-11-12T04:46:33.263Z,10.70
2022-11-12T04:49:18.927Z,10.52
2022-11-12T04:52:07.786Z,10.50
2022-11-12T04:54:54.024Z,10.53
2022-11-12T04:57:40.040Z,10.51
2022-11-12T05:00:25.816Z,10.37
2022-11-12T05:03:11.786Z,10.35
2022-11-12T05:06:04.527Z,10.40
2022-11-12T05:08:50.539Z,10.30
2022-11-12T05:11:36.419Z,10.29
2022-11-12T05:14:23.325Z,10.26
2022-11-12T05:17:09.242Z,10.22
2022-11-12T05:19:54.908Z,10.20
2022-11-12T05:22:47.734Z,10.00
2022-11-12T05:25:36.443Z,10.12
2022-11-12T05:31:08.526Z,9.83
2022-11-12T05:33:54.572Z,10.01
2022-11-12T05:36:40.460Z,10.05
2022-11-12T05:39:26.260Z,10.02
2022-11-12T05:42:13.803Z,9.94
2022-11-12T05:45:00.207Z,9.88
2022-11-12T05:47:46.064Z,9.77
2022-11-12T05:50:39.811Z,9.85
2022-11-12T05:53:31.190Z,9.67
2022-11-12T05:56:16.953Z,9.66
2022-11-12T05:59:08.255Z,9.87
2022-11-12T06:01:54.887Z,9.89
2022-11-12T06:04:40.578Z,9.73
2022-11-12T06:07:26.225Z,9.79
2022-11-12T06:10:16.049Z,9.84
2022-11-12T06:13:05.032Z,9.88
2022-11-12T06:15:51.863Z,9.81
2022-11-12T06:18:37.591Z,9.76
2022-11-12T06:21:23.247Z,9.91
2022-11-12T06:24:08.929Z,9.92
2022-11-12T06:26:54.780Z,9.95
2022-11-12T06:29:40.705Z,9.91
2022-11-12T06:32:26.429Z,9.83
2022-11-12T06:35:12.102Z,9.72
2022-11-12T06:37:57.744Z,9.81
2022-11-12T06:40:43.755Z,9.94
2022-11-12T06:43:31.100Z,9.77
2022-11-12T06:46:17.787Z,9.77
2022-11-12T06:49:03.798Z,9.97
2022-11-12T06:51:52.553Z,10.05
2022-11-12T06:54:38.351Z,10.08
2022-11-12T06:57:24.185Z,10.09
2022-11-12T07:00:11.778Z,10.13
2022-11-12T07:02:57.866Z,10.09
2022-11-12T07:05:43.767Z,9.94
2022-11-12T07:08:30.101Z,10.11
2022-11-12T07:11:17.918Z,10.17
2022-11-12T07:14:06.870Z,10.18
2022-11-12T07:16:52.827Z,10.08
2022-11-12T07:19:38.515Z,10.09
2022-11-12T07:22:24.671Z,10.30
2022-11-12T07:25:10.187Z,10.52
2022-11-12T07:27:55.889Z,10.58
2022-11-12T07:30:41.691Z,10.50
2022-11-12T07:33:28.477Z,10.68
2022-11-12T07:36:16.099Z,10.78
2022-11-12T07:39:02.215Z,10.80
2022-11-12T07:41:47.950Z,11.04
2022-11-12T07:44:33.736Z,11.16
2022-11-12T07:47:19.655Z,11.01
2022-11-12T07:50:05.779Z,11.29
2022-11-12T07:52:51.915Z,11.34
2022-11-12T07:55:37.759Z,11.41
2022-11-12T07:58:24.675Z,11.62
2022-11-12T08:01:23.164Z,11.76
2022-11-12T08:04:10.322Z,11.96
2022-11-12T08:06:56.239Z,12.38
2022-11-12T08:09:42.276Z,12.48
2022-11-12T08:12:29.223Z,12.72
2022-11-12T08:15:15.047Z,12.89
2022-11-12T08:18:00.770Z,13.02
2022-11-12T08:20:46.564Z,13.14
2022-11-12T08:23:32.555Z,13.16
2022-11-12T08:26:19.854Z,13.26
2022-11-12T08:29:08.727Z,13.30
2022-11-12T08:31:54.714Z,13.35
2022-11-12T08:34:41.369Z,13.44
2022-11-12T08:37:27.439Z,13.53
2022-11-12T08:40:13.221Z,13.64
2022-11-12T08:43:04.162Z,13.78
2022-11-12T08:45:50.161Z,13.93
2022-11-12T08:48:36.658Z,13.94
2022-11-12T08:51:22.530Z,13.89
2022-11-12T08:54:08.611Z,13.83
2022-11-12T08:56:54.444Z,13.83
2022-11-12T08:59:39.989Z,13.95
2022-11-12T09:02:25.751Z,13.87
2022-11-12T09:05:11.286Z,13.99
2022-11-12T09:07:59.110Z,14.25
2022-11-12T09:10:45.500Z,14.14
2022-11-12T09:13:31.565Z,14.03
2022-11-12T09:16:18.106Z,14.12
2022-11-12T09:19:04.182Z,14.00
2022-11-12T09:21:49.804Z,13.97
2022-11-12T09:24:35.605Z,13.92
2022-11-12T09:27:21.259Z,13.99
2022-11-12T09:30:07.747Z,13.95
2022-11-12T09:32:57.947Z,13.97
2022-11-12T09:35:45.545Z,14.02
2022-11-12T09:38:31.540Z,14.08
2022-11-12T09:41:22.627Z,14.00
2022-11-12T09:44:15.415Z,14.08
2022-11-12T09:47:08.021Z,14.09
2022-11-12T09:49:56.639Z,14.06
2022-11-12T09:52:44.277Z,14.09
2022-11-12T09:55:36.771Z,13.96
2022-11-12T09:58:22.616Z,14.06
2022-11-12T10:01:17.240Z,14.11
2022-11-12T10:04:17.656Z,14.26
2022-11-12T10:07:09.461Z,14.35
2022-11-12T10:10:03.841Z,14.15
2022-11-12T10:13:17.594Z,14.38
2022-11-12T10:16:42.785Z,14.25
2022-11-12T10:19:49.951Z,14.32
2022-11-12T10:22:44.628Z,14.38
2022-11-12T10:25:31.406Z,14.40
2022-11-12T10:28:33.104Z,14.80
2022-11-12T10:31:22.170Z,14.87
2022-11-12T10:34:13.890Z,14.74
2022-11-12T10:37:12.155Z,15.05
2022-11-12T10:39:57.691Z,15.01
2022-11-12T10:43:00.570Z,15.19
2022-11-12T10:45:49.221Z,15.06
2022-11-12T10:48:35.647Z,15.09
2022-11-12T10:51:57.736Z,15.21
2022-11-12T10:54:43.756Z,15.05
2022-11-12T10:57:29.602Z,15.31
2022-11-12T11:00:18.979Z,15.31
2022-11-12T11:03:22.814Z,15.30
2022-11-12T11:06:14.729Z,15.33
2022-11-12T11:09:16.691Z,15.23
2022-11-12T11:12:02.856Z,15.52
2022-11-12T11:15:07.326Z,15.55
2022-11-12T11:17:53.457Z,15.41
2022-11-12T11:20:44.545Z,15.46
2022-11-12T11:23:46.297Z,15.71
2022-11-12T11:26:50.912Z,15.84
2022-11-12T11:30:15.294Z,15.77
2022-11-12T11:33:10.082Z,15.91
2022-11-12T11:36:22.112Z,16.03
2022-11-12T11:39:39.030Z,15.95
2022-11-12T11:42:38.340Z,16.06
2022-11-12T11:45:34.583Z,16.32
2022-11-12T11:48:48.382Z,16.27
2022-11-12T11:51:57.207Z,16.44
2022-11-12T11:55:21.163Z,16.39
2022-11-12T11:58:12.842Z,16.29
2022-11-12T12:01:20.377Z,16.34
2022-11-12T12:04:27.843Z,16.48
2022-11-12T12:07:45.093Z,16.52
2022-11-12T12:11:09.885Z,16.48
2022-11-12T12:14:05.123Z,16.62
2022-11-12T12:17:09.856Z,16.44
2022-11-12T12:20:14.468Z,16.37
2022-11-12T12:23:10.786Z,16.58
2022-11-12T12:26:00.402Z,16.71
2022-11-12T12:28:46.388Z,16.79
2022-11-12T12:31:46.255Z,16.74
2022-11-12T12:34:38.935Z,16.84
2022-11-12T12:37:27.877Z,16.78
2022-11-12T12:40:34.001Z,16.68
2022-11-12T12:43:32.523Z,16.91
2022-11-12T12:46:23.197Z,16.92
2022-11-12T12:49:16.167Z,16.98
2022-11-12T12:52:02.185Z,16.79
2022-11-12T12:54:47.735Z,16.75
2022-11-12T12:57:37.909Z,16.86
2022-11-12T13:00:40.345Z,16.74
2022-11-12T13:03:47.311Z,16.97
2022-11-12T13:06:39.008Z,16.88
2022-11-12T13:09:25.793Z,16.92
2022-11-12T13:12:11.552Z,17.16
2022-11-12T13:15:13.150Z,17.06
2022-11-12T13:17:59.178Z,16.79
2022-11-12T13:21:07.993Z,16.90
2022-11-12T13:24:07.174Z,16.82
2022-11-12T13:26:59.983Z,16.65
2022-11-12T13:29:47.244Z,16.71
2022-11-12T13:32:35.039Z,16.75
2022-11-12T13:35:23.680Z,16.88
2022-11-12T13:38:09.339Z,16.71
2022-11-12T13:41:16.915Z,16.68
2022-11-12T13:44:06.751Z,16.74
2022-11-12T13:46:53.483Z,16.78
2022-11-12T13:49:39.497Z,16.73
2022-11-12T13:52:25.305Z,16.74
2022-11-12T13:55:17.528Z,16.77
2022-11-12T13:58:03.451Z,16.96
2022-11-12T14:01:00.361Z,16.69
2022-11-12T14:03:48.743Z,16.83
2022-11-12T14:06:37.777Z,16.67
2022-11-12T14:09:29.884Z,16.74
2022-11-12T14:12:37.062Z,16.57
2022-11-12T14:15:31.955Z,16.61
2022-11-12T14:18:30.630Z,16.55
2022-11-12T14:21:17.906Z,16.51
2022-11-12T14:24:04.705Z,16.39
2022-11-12T14:26:51.007Z,16.71
2022-11-12T14:29:41.079Z,16.45
2022-11-12T14:32:34.947Z,16.51
2022-11-12T14:35:31.693Z,16.56
2022-11-12T14:38:21.755Z,16.58
2022-11-12T14:41:20.388Z,16.33
2022-11-12T14:44:13.937Z,16.42
2022-11-12T14:47:00.518Z,16.32
2022-11-12T14:49:48.124Z,16.38
2022-11-12T14:52:37.571Z,16.38
2022-11-12T14:55:26.886Z,16.39
2022-11-12T14:58:14.935Z,16.31
2022-11-12T15:04:51.844Z,16.19
2022-11-12T15:07:58.723Z,15.98
2022-11-12T15:10:45.060Z,16.09
2022-11-12T15:13:38.406Z,15.91
2022-11-12T15:16:27.540Z,16.07
2022-11-12T15:19:28.883Z,16.17
2022-11-12T15:22:22.199Z,16.04
2022-11-12T15:25:24.951Z,15.89
2022-11-12T15:28:14.358Z,15.97
2022-11-12T15:31:22.388Z,15.98
2022-11-12T15:34:48.098Z,15.95
2022-11-12T15:37:41.138Z,15.76
2022-11-12T15:40:26.951Z,15.88
2022-11-12T15:43:18.526Z,15.84
2022-11-12T15:46:04.276Z,15.68
2022-11-12T15:48:55.509Z,15.53
2022-11-12T15:51:41.658Z,15.66
2022-11-12T15:54:27.251Z,15.41
2022-11-12T15:57:19.026Z,15.47
2022-11-12T16:00:09.884Z,15.45
2022-11-12T16:02:59.228Z,15.39
2022-11-12T16:05:45.598Z,15.39
2022-11-12T16:08:31.432Z,15.34
2022-11-12T16:11:35.645Z,15.58
2022-11-12T16:14:24.797Z,15.55
2022-11-12T16:17:15.719Z,15.48
2022-11-12T16:20:01.749Z,15.36
2022-11-12T16:22:48.696Z,15.40
2022-11-12T16:25:36.340Z,15.26
2022-11-12T16:28:22.200Z,15.31
2022-11-12T16:31:08.275Z,15.21
2022-11-12T16:33:54.098Z,15.31
2022-11-12T16:36:39.971Z,15.32
2022-11-12T16:39:25.718Z,15.31
2022-11-12T16:42:11.347Z,15.20
2022-11-12T16:44:57.207Z,15.13
2022-11-12T16:47:45.492Z,15.10
2022-11-12T16:50:31.163Z,15.05
2022-11-12T16:53:16.770Z,15.07
2022-11-12T16:56:02.586Z,15.02
2022-11-12T16:58:49.155Z,15.04
2022-11-12T17:01:35.312Z,15.00
2022-11-12T17:04:24.286Z,14.97
2022-11-12T17:07:10.013Z,14.82
2022-11-12T17:09:55.695Z,14.84
2022-11-12T17:12:41.367Z,14.80
2022-11-12T17:15:27.239Z,14.80
2022-11-12T17:18:13.337Z,14.74
2022-11-12T17:21:09.965Z,14.81
2022-11-12T17:23:57.905Z,14.75
2022-11-12T17:26:43.498Z,14.68
2022-11-12T17:29:29.449Z,14.67
2022-11-12T17:32:15.228Z,14.59
2022-11-12T17:35:00.803Z,14.58
2022-11-12T17:37:46.508Z,14.61
2022-11-12T17:40:32.075Z,14.54
2022-11-12T17:43:17.713Z,14.47
2022-11-12T17:46:04.804Z,14.50
2022-11-12T17:48:50.815Z,14.53
2022-11-12T17:51:36.841Z,14.34
2022-11-12T17:54:22.780Z,14.31
2022-11-12T17:57:08.382Z,14.38
2022-11-12T17:59:54.276Z,14.23
2022-11-12T18:02:39.846Z,14.22
2022-11-12T18:05:25.559Z,14.11
2022-11-12T18:08:11.678Z,14.07
2022-11-12T18:10:57.647Z,14.02
2022-11-12T18:13:43.343Z,14.07
2022-11-12T18:16:29.225Z,13.91
2022-11-12T18:19:15.688Z,13.77
2022-11-12T18:22:02.313Z,13.94
2022-11-12T18:24:48.589Z,13.86
2022-11-12T18:27:34.315Z,13.73
2022-11-12T18:30:19.995Z,13.74
2022-11-12T18:33:05.728Z,13.76
2022-11-12T18:36:01.103Z,13.73
2022-11-12T18:38:49.931Z,13.71
2022-11-12T18:41:35.758Z,13.66
2022-11-12T18:44:25.858Z,13.68
2022-11-12T18:47:12.164Z,13.71
2022-11-12T18:49:57.842Z,13.65
2022-11-12T18:52:43.692Z,13.66
2022-11-12T18:55:29.402Z,13.65
2022-11-12T18:58:15.115Z,13.78
2022-11-12T19:01:05.342Z,13.78
2022-11-12T19:03:55.811Z,13.69
2022-11-12T19:06:41.699Z,13.61
2022-11-12T19:09:27.395Z,13.53
2022-11-12T19:12:13.348Z,13.65
2022-11-12T19:14:58.997Z,13.61
2022-11-12T19:17:44.868Z,13.71
2022-11-12T19:20:30.691Z,13.73
2022-11-12T19:23:16.434Z,13.63
2022-11-12T19:26:03.736Z,13.75
2022-11-12T19:28:49.682Z,13.70
2022-11-12T19:31:35.540Z,13.66
2022-11-12T19:34:21.299Z,13.61
2022-11-12T19:37:31.960Z,13.60
2022-11-12T19:40:12.908Z,13.64
2022-11-12T19:42:58.799Z,13.64
2022-11-12T19:45:44.699Z,13.64
2022-11-12T19:48:31.248Z,13.61
2022-11-12T19:51:17.670Z,13.54
2022-11-12T19:54:04.532Z,13.60
2022-11-12T19:56:50.544Z,13.70
2022-11-12T19:59:36.245Z,13.60
2022-11-12T20:02:21.926Z,13.69
2022-11-12T20:05:07.979Z,13.53
2022-11-12T20:07:55.695Z,13.57
2022-11-12T20:10:41.335Z,13.62
2022-11-12T20:13:27.510Z,13.60
2022-11-12T20:16:16.108Z,13.66
2022-11-12T20:19:03.489Z,13.64
2022-11-12T20:21:49.401Z,13.61
2022-11-12T20:24:35.158Z,13.76
2022-11-12T20:27:20.968Z,13.69
2022-11-12T20:30:07.736Z,13.75
2022-11-12T20:32:53.665Z,13.75
2022-11-12T20:35:39.445Z,13.68
2022-11-12T20:38:25.559Z,13.61
2022-11-12T20:41:22.039Z,13.58
2022-11-12T20:44:08.153Z,13.57
2022-11-12T20:46:53.900Z,13.52
2022-11-12T20:49:39.719Z,13.52
2022-11-12T20:52:25.688Z,13.51
2022-11-12T20:55:11.654Z,13.54
2022-11-12T20:57:57.755Z,13.42
2022-11-12T21:00:43.342Z,13.45
2022-11-12T21:03:29.350Z,13.44
2022-11-12T21:06:17.471Z,13.41
2022-11-12T21:09:03.520Z,13.34
2022-11-12T21:11:49.695Z,13.41
2022-11-12T21:14:36.006Z,13.33
2022-11-12T21:17:21.684Z,13.27
2022-11-12T21:20:07.662Z,13.17
2022-11-12T21:22:53.394Z,13.13
2022-11-12T21:25:40.084Z,13.12
2022-11-12T21:28:26.360Z,13.07
2022-11-12T21:31:20.585Z,12.98
2022-11-12T21:34:07.057Z,12.91
2022-11-12T21:36:52.839Z,12.96
2022-11-12T21:39:38.631Z,12.75
2022-11-12T21:42:24.386Z,12.73
2022-11-12T21:45:10.582Z,12.66
2022-11-12T21:47:56.738Z,12.48
2022-11-12T21:50:42.642Z,12.51
2022-11-12T21:53:28.387Z,12.35
2022-11-12T21:56:17.603Z,12.34
2022-11-12T21:59:04.365Z,12.35
2022-11-12T22:01:49.951Z,12.39
2022-11-12T22:04:35.631Z,12.27
2022-11-12T22:07:21.319Z,12.26
2022-11-12T22:10:07.803Z,12.10
2022-11-12T22:13:24.860Z,12.09
2022-11-12T22:15:59.339Z,12.01
2022-11-12T22:18:49.940Z,11.85
2022-11-12T22:21:39.941Z,11.95
2022-11-12T22:24:26.082Z,11.85
2022-11-12T22:27:11.620Z,11.76
2022-11-12T22:29:57.431Z,11.80
2022-11-12T22:32:43.088Z,11.70
2022-11-12T22:35:28.654Z,11.50
2022-11-12T22:38:14.458Z,11.63
2022-11-12T22:41:01.788Z,11.54
2022-11-12T22:43:53.162Z,11.52
2022-11-12T22:46:39.122Z,11.40
2022-11-12T22:49:24.853Z,11.45
2022-11-12T22:52:10.386Z,11.38
2022-11-12T22:54:56.031Z,11.35
2022-11-12T22:57:41.718Z,11.38
2022-11-12T23:00:31.895Z,11.35
2022-11-12T23:03:17.730Z,11.28
2022-11-12T23:06:05.798Z,11.26
2022-11-12T23:08:53.348Z,11.12
2022-11-12T23:11:39.325Z,11.10
2022-11-12T23:14:25.075Z,11.12
2022-11-12T23:17:10.711Z,11.13
2022-11-12T23:19:56.673Z,11.10
2022-11-12T23:22:42.583Z,11.09
2022-11-12T23:25:28.520Z,10.95
2022-11-12T23:28:14.247Z,10.83
2022-11-12T23:31:00.355Z,10.89
2022-11-12T23:33:47.625Z,10.84
2022-11-12T23:36:33.483Z,10.82
2022-11-12T23:39:19.186Z,10.80
2022-11-12T23:42:05.350Z,10.81
2022-11-12T23:44:50.955Z,10.75
2022-11-12T23:47:36.509Z,10.71
2022-11-12T23:50:22.327Z,10.69
2022-11-12T23:53:07.904Z,10.67
2022-11-12T23:55:54.127Z,10.59
2022-11-12T23:58:41.073Z,10.45
